Time;durP1;ratioP1;P1;durP2;ratioP2;P2;SDS_P1;SDS_P2;PMS_P1;PMS_P2;Temp;Humidity;BMP_temperature;BMP_pressure;BME280_temperature;BME280_humidity;BME280_pressure;Samples;Min_cycle;Max_cycle;Signal;HPM_P1;HPM_P2
2022/11/03 00:02:01;;;;;;;0.00;0.00;;;11.90;99.90;;;;;;5069635;28;20394;-64
2022/11/03 00:04:27;;;;;;;0.38;0.38;;;11.90;99.90;;;;;;5042774;28;20559;-64
2022/11/03 00:06:53;;;;;;;1.50;0.95;;;11.90;99.90;;;;;;5057927;28;20710;-64
2022/11/03 00:09:21;;;;;;;0.00;0.00;;;11.90;99.90;;;;;;5069935;28;20047;-63
2022/11/03 00:11:49;;;;;;;0.10;0.10;;;11.90;99.90;;;;;;5056313;28;20396;-63
2022/11/03 00:14:15;;;;;;;0.10;0.10;;;11.90;99.90;;;;;;5062362;28;20044;-64
2022/11/03 00:16:42;;;;;;;0.20;0.20;;;11.90;99.90;;;;;;5065888;28;20044;-63
2022/11/03 00:19:09;;;;;;;0.10;0.10;;;11.80;99.90;;;;;;5038310;28;20537;-63
2022/11/03 00:21:35;;;;;;;0.10;0.10;;;11.80;99.90;;;;;;5061905;28;20429;-64
2022/11/03 00:24:01;;;;;;;0.10;0.10;;;11.80;99.90;;;;;;5050371;28;20041;-64
2022/11/03 00:26:28;;;;;;;0.73;0.73;;;11.70;99.90;;;;;;5048724;28;20478;-64
2022/11/03 00:28:56;;;;;;;1.55;1.45;;;11.70;99.90;;;;;;5060404;28;20158;-64
2022/11/03 00:31:24;;;;;;;0.10;0.10;;;11.80;99.90;;;;;;5068671;28;20064;-64
2022/11/03 00:33:50;;;;;;;0.08;0.08;;;11.80;99.90;;;;;;5064927;28;20036;-64
2022/11/03 00:36:21;;;;;;;1.55;0.55;;;11.70;99.90;;;;;;5049178;28;20048;-64
2022/11/03 00:38:47;;;;;;;0.10;0.10;;;11.70;99.90;;;;;;5058024;28;20044;-64
2022/11/03 00:41:13;;;;;;;0.10;0.10;;;11.70;99.90;;;;;;5063999;28;20101;-63
2022/11/03 00:43:39;;;;;;;0.10;0.10;;;11.70;99.90;;;;;;5062103;28;20041;-64
2022/11/03 00:46:06;;;;;;;0.25;0.25;;;11.60;99.90;;;;;;5069050;28;20173;-64
2022/11/03 00:48:33;;;;;;;0.00;0.00;;;11.60;99.90;;;;;;5053387;28;20051;-63
2022/11/03 00:51:12;;;;;;;0.15;0.15;;;11.60;99.90;;;;;;5065571;28;20048;-64
2022/11/03 00:53:40;;;;;;;0.85;0.82;;;11.60;99.90;;;;;;5065821;28;20049;-64
2022/11/03 00:56:09;;;;;;;0.30;0.30;;;11.60;99.90;;;;;;5052243;28;20041;-63
2022/11/03 00:58:35;;;;;;;0.08;0.08;;;11.60;99.90;;;;;;5068803;28;20064;-64
2022/11/03 01:01:07;;;;;;;1.23;0.35;;;11.60;99.90;;;;;;5068693;28;20044;-63
2022/11/03 01:03:34;;;;;;;4.15;2.33;;;11.60;99.90;;;;;;5067617;28;20048;-64
2022/11/03 01:08:45;;;;;;;0.15;0.15;;;11.50;99.90;;;;;;5072732;28;21662;-64
2022/11/03 01:14:00;;;;;;;0.30;0.30;;;11.50;99.90;;;;;;5067631;28;20052;-64
2022/11/03 01:16:26;;;;;;;0.30;0.30;;;11.50;99.90;;;;;;5055035;28;20356;-64
2022/11/03 01:18:51;;;;;;;0.00;0.00;;;11.60;99.90;;;;;;5056426;28;20454;-63
2022/11/03 01:21:17;;;;;;;3.53;1.30;;;11.60;99.90;;;;;;5071094;28;20097;-63
2022/11/03 01:23:43;;;;;;;3.30;2.92;;;11.60;99.90;;;;;;5071117;28;20056;-64
2022/11/03 01:26:10;;;;;;;2.55;1.00;;;11.50;99.90;;;;;;5053085;28;20048;-64
2022/11/03 01:28:38;;;;;;;0.15;0.15;;;11.50;99.90;;;;;;5042839;28;20164;-64
2022/11/03 01:31:05;;;;;;;0.10;0.10;;;11.60;99.90;;;;;;5039782;28;20503;-63
2022/11/03 01:33:31;;;;;;;0.10;0.10;;;11.50;99.90;;;;;;5035737;28;20042;-63
2022/11/03 01:35:57;;;;;;;0.20;0.20;;;11.60;99.90;;;;;;5048299;28;20400;-64
2022/11/03 01:38:23;;;;;;;0.10;0.10;;;11.60;99.90;;;;;;5052063;28;20109;-64
2022/11/03 01:40:48;;;;;;;0.10;0.10;;;11.60;99.90;;;;;;5052885;28;20546;-64
2022/11/03 01:43:20;;;;;;;0.82;0.77;;;11.60;99.90;;;;;;5038789;28;20060;-63
2022/11/03 01:45:48;;;;;;;0.47;0.47;;;11.60;99.90;;;;;;5040828;28;20396;-63
2022/11/03 01:48:17;;;;;;;0.80;0.73;;;11.60;99.90;;;;;;5040301;28;20049;-64
2022/11/03 01:50:44;;;;;;;0.10;0.10;;;11.70;99.90;;;;;;5050769;28;20049;-63
2022/11/03 01:53:11;;;;;;;0.10;0.10;;;11.60;99.90;;;;;;5038365;28;20091;-63
2022/11/03 01:55:40;;;;;;;0.85;0.85;;;11.60;99.90;;;;;;5047353;28;20489;-64
2022/11/03 01:58:36;;;;;;;0.10;0.10;;;11.60;99.90;;;;;;5047130;28;20118;-63
2022/11/03 02:01:02;;;;;;;1.00;0.63;;;11.50;99.90;;;;;;5031455;28;20052;-64
2022/11/03 02:03:33;;;;;;;0.68;0.68;;;11.40;99.90;;;;;;5044413;28;20795;-64
2022/11/03 02:05:59;;;;;;;3.10;2.15;;;11.50;99.90;;;;;;5049637;28;20061;-63
2022/11/03 02:08:34;;;;;;;4.10;1.40;;;11.40;99.90;;;;;;5049532;28;20053;-64
2022/11/03 02:12:05;;;;;;;0.10;0.10;;;11.40;99.90;;;;;;5036975;28;20045;-63
2022/11/03 02:13:45;;;;;;;0.10;0.10;;;11.40;99.90;;;;;;5042691;28;20087;-64
2022/11/03 02:16:11;;;;;;;0.43;0.43;;;11.50;99.90;;;;;;5048855;28;20489;-64
2022/11/03 02:18:38;;;;;;;0.10;0.10;;;11.50;99.90;;;;;;5043168;28;20420;-63
2022/11/03 02:21:24;;;;;;;0.10;0.10;;;11.50;99.90;;;;;;5042776;28;20040;-63
2022/11/03 02:24:23;;;;;;;0.10;0.10;;;11.50;99.90;;;;;;5050725;28;20110;-64
2022/11/03 02:26:52;;;;;;;0.08;0.08;;;11.50;99.90;;;;;;5051938;28;20041;-63
2022/11/03 02:29:18;;;;;;;0.22;0.22;;;11.50;99.90;;;;;;5050415;28;20064;-63
2022/11/03 02:31:53;;;;;;;0.45;0.45;;;11.50;99.90;;;;;;5058678;28;20052;-63
2022/11/03 02:34:36;;;;;;;0.10;0.10;;;11.50;99.90;;;;;;5056648;28;20119;-63
2022/11/03 02:37:10;;;;;;;0.20;0.20;;;11.50;99.90;;;;;;5070268;28;20051;-63
2022/11/03 02:39:44;;;;;;;0.10;0.10;;;11.50;99.90;;;;;;5070145;28;20056;-63
2022/11/03 02:42:13;;;;;;;0.10;0.10;;;11.50;99.90;;;;;;5071694;28;20051;-64
2022/11/03 02:44:40;;;;;;;0.80;0.80;;;11.50;99.90;;;;;;5054370;28;20039;-63
2022/11/03 02:47:10;;;;;;;0.32;0.32;;;11.50;99.90;;;;;;5069536;28;20483;-63
2022/11/03 02:49:44;;;;;;;0.90;0.73;;;11.50;99.90;;;;;;5070388;28;20124;-63
2022/11/03 02:52:32;;;;;;;0.10;0.10;;;11.50;99.90;;;;;;5051571;28;20047;-63
2022/11/03 02:55:01;;;;;;;0.30;0.30;;;11.50;99.90;;;;;;5061756;28;20557;-63
2022/11/03 02:57:31;;;;;;;0.43;0.43;;;11.60;99.90;;;;;;5052005;28;20069;-64
2022/11/03 03:00:02;;;;;;;0.22;0.22;;;11.60;99.90;;;;;;5065712;28;20045;-64
2022/11/03 03:02:36;;;;;;;0.30;0.30;;;11.60;99.90;;;;;;5053073;28;20436;-64
2022/11/03 03:05:05;;;;;;;1.88;1.75;;;11.70;99.90;;;;;;5060673;28;20045;-63
2022/11/03 03:07:35;;;;;;;0.85;0.32;;;11.70;99.90;;;;;;5056749;28;20082;-63
2022/11/03 03:10:16;;;;;;;0.00;0.00;;;11.70;99.90;;;;;;5070356;28;20074;-64
2022/11/03 03:13:05;;;;;;;0.10;0.10;;;11.70;99.90;;;;;;5058106;28;20041;-64
2022/11/03 03:15:39;;;;;;;0.20;0.20;;;11.70;99.90;;;;;;5057379;28;20056;-63
2022/11/03 03:18:29;;;;;;;1.15;0.90;;;11.80;99.90;;;;;;5052376;28;20475;-64
2022/11/03 03:21:02;;;;;;;0.22;0.22;;;11.80;99.90;;;;;;5069604;28;20053;-63
2022/11/03 03:23:35;;;;;;;0.87;0.67;;;11.80;99.90;;;;;;5050850;28;20127;-64
2022/11/03 03:26:09;;;;;;;0.25;0.25;;;11.80;99.90;;;;;;5061672;28;20059;-64
2022/11/03 03:28:36;;;;;;;0.35;0.35;;;11.80;99.90;;;;;;5057855;28;20068;-64
2022/11/03 03:31:07;;;;;;;0.20;0.20;;;11.80;99.90;;;;;;5060704;28;20094;-64
2022/11/03 03:33:34;;;;;;;0.17;0.17;;;11.80;99.90;;;;;;5069992;28;20044;-64
2022/11/03 03:36:02;;;;;;;0.30;0.30;;;11.80;99.90;;;;;;5070128;28;20049;-63
2022/11/03 03:38:34;;;;;;;1.02;1.00;;;11.80;99.90;;;;;;5056242;28;20064;-64
2022/11/03 03:41:03;;;;;;;12.18;1.75;;;11.80;99.90;;;;;;5048465;28;20396;-63
2022/11/03 03:43:31;;;;;;;0.45;0.45;;;11.80;99.90;;;;;;5069607;28;20499;-63
2022/11/03 03:46:02;;;;;;;26.58;0.90;;;11.80;99.90;;;;;;5067846;28;20049;-63
2022/11/03 03:48:28;;;;;;;0.22;0.22;;;11.80;99.90;;;;;;5058583;28;20040;-63
2022/11/03 03:50:55;;;;;;;0.47;0.28;;;11.80;99.90;;;;;;5068558;28;20043;-63
2022/11/03 03:53:20;;;;;;;0.32;0.32;;;11.80;99.90;;;;;;5051145;28;20041;-64
2022/11/03 03:55:50;;;;;;;0.10;0.10;;;11.80;99.90;;;;;;5058546;28;20036;-63
2022/11/03 03:58:16;;;;;;;0.10;0.10;;;11.80;99.90;;;;;;5049025;28;20404;-63
2022/11/03 04:00:42;;;;;;;8.07;1.50;;;11.80;99.90;;;;;;5067096;28;20460;-63
2022/11/03 04:03:16;;;;;;;0.10;0.10;;;11.80;99.90;;;;;;5063081;28;20028;-64
2022/11/03 04:05:42;;;;;;;0.10;0.10;;;11.80;99.90;;;;;;5061553;28;20458;-64
2022/11/03 04:08:09;;;;;;;0.10;0.10;;;11.80;99.90;;;;;;5070574;28;20059;-63
2022/11/03 04:10:34;;;;;;;3.72;1.65;;;11.80;99.90;;;;;;5052984;28;20048;-63
2022/11/03 04:23:50;;;;;;;1.00;0.90;;;11.70;99.90;;;;;;5057221;28;20045;-63
2022/11/03 04:26:18;;;;;;;0.00;0.00;;;11.60;99.90;;;;;;5064199;28;20961;-64
2022/11/03 04:28:45;;;;;;;0.10;0.10;;;11.60;99.90;;;;;;5069016;28;20064;-64
2022/11/03 04:31:15;;;;;;;0.30;0.30;;;11.60;99.90;;;;;;5069860;28;20391;-63
2022/11/03 04:33:41;;;;;;;0.10;0.10;;;11.50;99.90;;;;;;5062522;28;20041;-63
2022/11/03 04:36:24;;;;;;;0.40;0.40;;;11.50;99.90;;;;;;5059336;28;20048;-63
2022/11/03 04:38:50;;;;;;;0.25;0.25;;;11.40;99.90;;;;;;5055940;28;20053;-63
2022/11/03 04:41:20;;;;;;;0.43;0.30;;;11.40;99.90;;;;;;5072653;28;20044;-64
2022/11/03 04:43:45;;;;;;;0.17;0.17;;;11.40;99.90;;;;;;5073160;28;20044;-64
2022/11/03 04:46:15;;;;;;;0.10;0.10;;;11.30;99.90;;;;;;5062089;28;20047;-63
2022/11/03 04:48:41;;;;;;;0.00;0.00;;;11.40;99.90;;;;;;5057182;28;20032;-63
2022/11/03 04:51:17;;;;;;;0.35;0.35;;;11.30;99.90;;;;;;5061513;28;20113;-63
2022/11/03 04:53:54;;;;;;;3.08;2.03;;;11.30;99.90;;;;;;5058935;28;20483;-63
2022/11/03 04:56:22;;;;;;;0.85;0.85;;;11.30;99.90;;;;;;5071093;28;20059;-63
2022/11/03 04:58:48;;;;;;;6.45;1.70;;;11.30;99.90;;;;;;5072178;28;20047;-63
2022/11/03 05:01:17;;;;;;;0.10;0.10;;;11.20;99.90;;;;;;5071984;28;20040;-63
2022/11/03 05:03:45;;;;;;;0.10;0.10;;;11.20;99.90;;;;;;5070599;28;20040;-63
2022/11/03 05:06:15;;;;;;;0.10;0.10;;;11.10;99.90;;;;;;5059757;28;20503;-64
2022/11/03 05:08:43;;;;;;;0.30;0.30;;;11.10;99.90;;;;;;5056698;28;20134;-64
2022/11/03 05:11:31;;;;;;;0.10;0.10;;;11.10;99.90;;;;;;5050944;28;20068;-64
2022/11/03 05:13:59;;;;;;;0.20;0.20;;;11.10;99.90;;;;;;5065633;28;20051;-64
2022/11/03 05:16:25;;;;;;;0.17;0.17;;;11.10;99.90;;;;;;5069818;28;20041;-64
2022/11/03 05:18:51;;;;;;;0.30;0.30;;;11.10;99.90;;;;;;5055410;28;20440;-63
2022/11/03 05:21:23;;;;;;;0.30;0.30;;;11.10;99.90;;;;;;5058579;28;20041;-64
2022/11/03 05:24:02;;;;;;;0.30;0.30;;;11.10;99.90;;;;;;5052957;28;20044;-64
2022/11/03 05:26:32;;;;;;;0.25;0.25;;;11.10;99.90;;;;;;5049191;28;20063;-64
2022/11/03 05:29:08;;;;;;;0.20;0.20;;;11.10;99.90;;;;;;5055398;28;20130;-63
2022/11/03 05:31:35;;;;;;;0.10;0.10;;;11.10;99.90;;;;;;5058363;28;20044;-64
2022/11/03 05:34:11;;;;;;;0.00;0.00;;;11.20;99.90;;;;;;5057708;28;20107;-63
2022/11/03 05:36:37;;;;;;;0.10;0.10;;;11.20;99.90;;;;;;5042172;28;20050;-63
2022/11/03 05:39:30;;;;;;;0.10;0.10;;;11.20;99.90;;;;;;5070391;28;20408;-63
2022/11/03 05:41:59;;;;;;;0.90;0.90;;;11.20;99.90;;;;;;5051714;28;20443;-63
2022/11/03 05:44:36;;;;;;;0.10;0.10;;;11.30;99.90;;;;;;5068816;28;20090;-63
2022/11/03 05:47:10;;;;;;;0.10;0.10;;;11.30;99.90;;;;;;5052817;28;20131;-63
2022/11/03 05:49:36;;;;;;;0.03;0.03;;;11.30;99.90;;;;;;5069125;28;20048;-63
2022/11/03 05:52:02;;;;;;;0.32;0.32;;;11.20;99.90;;;;;;5070083;28;20044;-63
2022/11/03 05:54:32;;;;;;;0.10;0.10;;;11.30;99.90;;;;;;5055886;28;20044;-63
2022/11/03 05:56:58;;;;;;;0.10;0.10;;;11.30;99.90;;;;;;5061833;28;20044;-63
2022/11/03 05:59:26;;;;;;;1.63;1.23;;;11.30;99.90;;;;;;5070907;28;20044;-63
2022/11/03 06:01:53;;;;;;;5.57;0.85;;;11.30;99.90;;;;;;5046958;28;20480;-63
2022/11/03 06:04:36;;;;;;;0.10;0.10;;;11.30;99.90;;;;;;5067704;28;20406;-63
2022/11/03 06:07:20;;;;;;;0.55;0.55;;;11.30;99.90;;;;;;5052346;28;20489;-63
2022/11/03 06:09:46;;;;;;;0.08;0.08;;;11.20;99.90;;;;;;5053574;28;20056;-64
2022/11/03 06:12:16;;;;;;;0.10;0.10;;;11.30;99.90;;;;;;5072016;28;20495;-63
2022/11/03 06:14:41;;;;;;;0.10;0.10;;;11.30;99.90;;;;;;5049675;28;20431;-64
2022/11/03 06:17:20;;;;;;;1.80;1.65;;;11.20;99.90;;;;;;5055173;28;20049;-64
2022/11/03 06:19:47;;;;;;;0.50;0.50;;;11.20;99.90;;;;;;5064695;28;20501;-64
2022/11/03 06:22:30;;;;;;;4.13;1.65;;;11.20;99.90;;;;;;5061253;28;20102;-64
2022/11/03 06:25:18;;;;;;;0.70;0.70;;;11.30;99.90;;;;;;5058665;28;20388;-63
2022/11/03 06:27:44;;;;;;;0.85;0.85;;;11.30;99.90;;;;;;5067314;28;20032;-63
2022/11/03 06:30:22;;;;;;;0.57;0.43;;;11.30;99.90;;;;;;5049516;28;20053;-64
2022/11/03 06:32:48;;;;;;;0.13;0.13;;;11.20;99.90;;;;;;5061943;28;20153;-63
2022/11/03 06:35:14;;;;;;;0.20;0.20;;;11.20;99.90;;;;;;5070122;28;20143;-63
2022/11/03 06:37:41;;;;;;;2.22;0.95;;;11.30;99.90;;;;;;5068736;28;20421;-64
2022/11/03 06:40:09;;;;;;;0.10;0.10;;;11.20;99.90;;;;;;5055866;28;20037;-64
2022/11/03 06:42:37;;;;;;;0.47;0.47;;;11.20;99.90;;;;;;5050467;28;20135;-64
2022/11/03 06:45:16;;;;;;;0.10;0.10;;;11.20;99.90;;;;;;5062378;28;20029;-63
2022/11/03 06:47:42;;;;;;;0.10;0.10;;;11.20;99.90;;;;;;5047224;28;20136;-64
2022/11/03 06:50:24;;;;;;;0.00;0.00;;;11.20;99.90;;;;;;5043471;28;20202;-64
2022/11/03 06:52:50;;;;;;;0.10;0.10;;;11.30;99.90;;;;;;5067785;28;20178;-63
2022/11/03 06:55:25;;;;;;;0.10;0.10;;;11.20;99.90;;;;;;5054477;28;20037;-64
2022/11/03 06:57:56;;;;;;;0.47;0.47;;;11.30;99.90;;;;;;5051531;28;20044;-64
2022/11/03 07:00:22;;;;;;;0.15;0.15;;;11.20;99.90;;;;;;5048730;28;20041;-64
2022/11/03 07:03:12;;;;;;;0.15;0.15;;;11.30;99.90;;;;;;5050930;28;20052;-64
2022/11/03 07:05:39;;;;;;;0.08;0.08;;;11.30;99.90;;;;;;5064093;28;20045;-64
2022/11/03 07:08:19;;;;;;;0.20;0.20;;;11.40;99.90;;;;;;5066053;28;20282;-63
2022/11/03 07:10:45;;;;;;;0.20;0.20;;;11.30;99.90;;;;;;5059436;28;20060;-64
2022/11/03 07:13:21;;;;;;;0.73;0.73;;;11.30;99.90;;;;;;5032599;28;20052;-64
2022/11/03 07:15:46;;;;;;;0.10;0.10;;;11.30;99.90;;;;;;5066002;28;20514;-64
2022/11/03 07:18:38;;;;;;;0.75;0.75;;;11.30;99.90;;;;;;5068416;28;20048;-64
2022/11/03 07:21:17;;;;;;;0.93;0.93;;;11.30;99.90;;;;;;5056115;28;20546;-64
2022/11/03 07:23:43;;;;;;;0.10;0.10;;;11.30;99.90;;;;;;5054215;28;20046;-64
2022/11/03 07:26:10;;;;;;;0.77;0.77;;;11.40;99.90;;;;;;5063959;28;20044;-64
2022/11/03 07:28:37;;;;;;;0.10;0.10;;;11.40;99.90;;;;;;5042821;28;20432;-64
2022/11/03 07:31:15;;;;;;;0.28;0.28;;;11.40;99.90;;;;;;5043904;28;20036;-64
2022/11/03 07:33:42;;;;;;;0.10;0.10;;;11.40;99.90;;;;;;5040015;28;20045;-64
2022/11/03 07:36:11;;;;;;;0.10;0.10;;;11.50;99.90;;;;;;5037871;28;20398;-64
2022/11/03 07:38:37;;;;;;;0.10;0.10;;;11.50;99.90;;;;;;5041083;28;20492;-64
2022/11/03 07:41:03;;;;;;;0.10;0.10;;;11.50;99.90;;;;;;5050360;28;20059;-64
2022/11/03 07:43:31;;;;;;;0.40;0.40;;;11.50;99.90;;;;;;5043073;28;20048;-64
2022/11/03 07:46:00;;;;;;;0.10;0.10;;;11.50;99.90;;;;;;5045477;28;20046;-64
2022/11/03 07:48:39;;;;;;;1.23;1.17;;;11.50;99.90;;;;;;5048566;28;20098;-65
2022/11/03 07:51:18;;;;;;;0.88;0.80;;;11.50;99.90;;;;;;5045829;28;20092;-64
2022/11/03 07:53:51;;;;;;;5.18;0.63;;;11.50;99.90;;;;;;5033142;28;20408;-64
2022/11/03 07:56:24;;;;;;;2.20;1.48;;;11.60;99.90;;;;;;5030453;28;20053;-64
2022/11/03 07:59:00;;;;;;;0.00;0.00;;;11.60;99.90;;;;;;5031334;28;20053;-64
2022/11/03 08:01:31;;;;;;;0.10;0.10;;;11.60;99.90;;;;;;5028954;28;20505;-64
2022/11/03 08:04:04;;;;;;;6.03;1.63;;;11.60;99.90;;;;;;5028611;28;20476;-64
2022/11/03 08:06:30;;;;;;;0.10;0.10;;;11.60;99.90;;;;;;5029102;28;20571;-64
2022/11/03 08:08:56;;;;;;;1.67;1.27;;;11.60;99.90;;;;;;5029754;28;20045;-64
2022/11/03 08:11:23;;;;;;;0.10;0.10;;;11.60;99.90;;;;;;5027351;28;20049;-64
2022/11/03 08:13:50;;;;;;;0.10;0.10;;;11.70;99.90;;;;;;5042027;28;20515;-63
2022/11/03 08:16:16;;;;;;;0.20;0.20;;;11.70;99.90;;;;;;5043491;28;20481;-64
2022/11/03 08:18:41;;;;;;;0.10;0.10;;;11.70;99.90;;;;;;5045369;28;20098;-63
2022/11/03 08:21:07;;;;;;;0.10;0.10;;;11.70;99.90;;;;;;5041440;28;20044;-64
2022/11/03 08:23:32;;;;;;;0.10;0.10;;;11.70;99.90;;;;;;5032963;28;20037;-64
2022/11/03 08:25:58;;;;;;;0.32;0.32;;;11.80;99.90;;;;;;5044964;28;20048;-64
2022/11/03 08:28:24;;;;;;;0.10;0.10;;;11.80;99.90;;;;;;5051472;28;20455;-64
2022/11/03 08:30:49;;;;;;;0.52;0.52;;;11.80;99.90;;;;;;5062332;28;20087;-64
2022/11/03 08:33:15;;;;;;;1.85;1.05;;;11.90;99.90;;;;;;5052224;28;20127;-64
2022/11/03 08:35:41;;;;;;;0.63;0.20;;;11.90;99.90;;;;;;5055270;28;20052;-64
2022/11/03 08:38:06;;;;;;;0.10;0.10;;;11.90;99.90;;;;;;5049257;28;20052;-64
2022/11/03 08:40:32;;;;;;;1.02;0.77;;;12.00;99.90;;;;;;5054486;28;20094;-64
2022/11/03 08:42:59;;;;;;;1.15;1.08;;;12.00;99.90;;;;;;5050188;28;20480;-64
2022/11/03 08:45:25;;;;;;;13.88;1.27;;;12.00;99.90;;;;;;5055567;28;20059;-64
2022/11/03 08:47:50;;;;;;;0.85;0.47;;;12.10;99.90;;;;;;5062522;28;20044;-64
2022/11/03 08:50:16;;;;;;;0.00;0.00;;;12.10;99.90;;;;;;5068920;28;20403;-64
2022/11/03 08:52:41;;;;;;;0.10;0.10;;;12.10;99.90;;;;;;5055064;28;20044;-64
2022/11/03 08:55:07;;;;;;;0.10;0.10;;;12.10;99.90;;;;;;5049967;28;20484;-64
2022/11/03 08:57:33;;;;;;;0.10;0.10;;;12.20;99.90;;;;;;5049674;28;20052;-64
2022/11/03 08:59:59;;;;;;;0.10;0.10;;;12.20;99.90;;;;;;5056084;28;20036;-64
2022/11/03 09:02:24;;;;;;;0.10;0.10;;;12.30;99.90;;;;;;5050981;28;20050;-64
2022/11/03 09:04:50;;;;;;;0.17;0.17;;;12.30;99.90;;;;;;5060061;28;20084;-64
2022/11/03 09:07:15;;;;;;;0.35;0.35;;;12.30;99.90;;;;;;5059774;28;20480;-64
2022/11/03 09:09:41;;;;;;;0.10;0.10;;;12.40;99.90;;;;;;5050133;28;20067;-64
2022/11/03 09:12:06;;;;;;;0.10;0.10;;;12.40;99.90;;;;;;5062455;28;20182;-64
2022/11/03 09:14:32;;;;;;;0.00;0.00;;;12.50;99.90;;;;;;5056447;28;20149;-64
2022/11/03 09:16:57;;;;;;;0.10;0.10;;;12.50;99.90;;;;;;5036723;28;21133;-64
2022/11/03 09:19:23;;;;;;;0.20;0.20;;;12.60;99.90;;;;;;5054633;28;20048;-64
2022/11/03 09:21:51;;;;;;;0.63;0.63;;;12.60;99.90;;;;;;5052686;28;20044;-64
2022/11/03 09:24:16;;;;;;;0.10;0.10;;;12.60;99.90;;;;;;5071425;28;20048;-64
2022/11/03 09:26:42;;;;;;;0.08;0.08;;;12.60;99.90;;;;;;5061983;28;20048;-64
2022/11/03 09:29:07;;;;;;;0.10;0.10;;;12.70;99.90;;;;;;5066460;28;20053;-64
2022/11/03 09:31:33;;;;;;;0.90;0.88;;;12.70;99.90;;;;;;5059944;28;20402;-64
2022/11/03 09:33:58;;;;;;;8.43;2.25;;;12.70;99.90;;;;;;5058450;28;20835;-64
2022/11/03 09:36:24;;;;;;;0.30;0.30;;;12.70;99.90;;;;;;5060346;28;20572;-64
2022/11/03 09:38:49;;;;;;;0.15;0.15;;;12.80;99.90;;;;;;5070153;28;20530;-64
2022/11/03 09:41:18;;;;;;;0.75;0.75;;;12.80;99.90;;;;;;5064530;28;20051;-63
2022/11/03 09:43:46;;;;;;;2.47;1.65;;;12.80;99.90;;;;;;5049750;28;20059;-64
2022/11/03 09:46:12;;;;;;;0.73;0.73;;;12.80;99.90;;;;;;5060679;28;20040;-64
2022/11/03 09:48:38;;;;;;;0.20;0.20;;;12.90;99.90;;;;;;5063983;28;20028;-64
2022/11/03 09:51:04;;;;;;;0.10;0.10;;;12.80;99.90;;;;;;5060316;28;20037;-64
2022/11/03 09:53:30;;;;;;;2.10;1.48;;;12.90;99.90;;;;;;5063862;28;20047;-63
2022/11/03 09:55:55;;;;;;;0.10;0.10;;;12.90;99.90;;;;;;5060118;28;20053;-63
2022/11/03 09:58:21;;;;;;;0.20;0.20;;;12.90;99.90;;;;;;5066120;28;20045;-64
2022/11/03 10:00:47;;;;;;;0.13;0.13;;;12.90;99.90;;;;;;5067749;28;20048;-64
2022/11/03 10:03:15;;;;;;;0.30;0.30;;;12.90;99.90;;;;;;5072076;28;20132;-64
2022/11/03 10:05:43;;;;;;;0.10;0.10;;;12.90;99.90;;;;;;5068658;28;20068;-63
2022/11/03 10:08:40;;;;;;;0.20;0.20;;;13.00;99.90;;;;;;5057102;28;20036;-63
2022/11/03 10:11:08;;;;;;;0.10;0.10;;;13.00;99.90;;;;;;5049228;28;20052;-63
2022/11/03 10:13:44;;;;;;;0.10;0.10;;;13.00;99.90;;;;;;5071640;28;20507;-64
2022/11/03 10:16:14;;;;;;;0.10;0.10;;;13.10;99.90;;;;;;5071005;28;20048;-64
2022/11/03 10:18:40;;;;;;;0.10;0.10;;;13.10;99.90;;;;;;5068065;28;20048;-63
2022/11/03 10:21:14;;;;;;;0.10;0.10;;;13.10;99.90;;;;;;5071210;28;20048;-64
2022/11/03 10:23:39;;;;;;;0.10;0.10;;;13.10;99.90;;;;;;5071514;28;20121;-64
2022/11/03 10:26:17;;;;;;;0.10;0.10;;;13.10;99.90;;;;;;5064563;28;20084;-64
2022/11/03 10:29:09;;;;;;;0.10;0.10;;;13.10;99.90;;;;;;5057786;28;20496;-64
2022/11/03 10:31:37;;;;;;;0.20;0.20;;;13.10;99.90;;;;;;5050798;28;20400;-64
2022/11/03 10:34:04;;;;;;;1.42;1.33;;;13.10;99.90;;;;;;5057033;28;20036;-64
2022/11/03 10:36:32;;;;;;;0.85;0.85;;;13.20;99.90;;;;;;5067715;28;20080;-64
2022/11/03 10:39:00;;;;;;;0.40;0.40;;;13.20;99.90;;;;;;5050931;28;20415;-64
2022/11/03 10:41:30;;;;;;;0.10;0.10;;;13.20;99.90;;;;;;5070444;28;20048;-64
2022/11/03 10:44:09;;;;;;;0.00;0.00;;;13.20;99.90;;;;;;5071908;28;20041;-63
2022/11/03 10:46:35;;;;;;;0.10;0.10;;;13.20;99.90;;;;;;5062639;28;20088;-64
2022/11/03 10:49:15;;;;;;;0.10;0.10;;;13.30;99.90;;;;;;5039316;28;20040;-64
2022/11/03 10:51:42;;;;;;;0.15;0.15;;;13.30;99.90;;;;;;5070949;28;20114;-64
2022/11/03 10:54:13;;;;;;;0.10;0.10;;;13.30;99.90;;;;;;5066750;28;20388;-64
2022/11/03 10:56:39;;;;;;;1.30;1.20;;;13.40;99.90;;;;;;5051445;28;20041;-64
2022/11/03 10:59:05;;;;;;;0.10;0.10;;;13.40;99.90;;;;;;5050454;28;20040;-64
2022/11/03 11:01:30;;;;;;;12.40;1.75;;;13.50;99.90;;;;;;5054223;28;20601;-64
2022/11/03 11:03:57;;;;;;;0.98;0.40;;;13.60;99.90;;;;;;5060311;28;20047;-64
2022/11/03 11:06:26;;;;;;;0.20;0.20;;;13.60;99.90;;;;;;5057716;28;20138;-63
2022/11/03 11:08:56;;;;;;;0.15;0.15;;;13.70;99.90;;;;;;5064329;28;20044;-64
2022/11/03 11:11:22;;;;;;;0.00;0.00;;;13.70;99.90;;;;;;5065439;28;20548;-63
2022/11/03 11:14:26;;;;;;;0.85;0.85;;;13.70;99.90;;;;;;5045035;28;20091;-64
2022/11/03 11:16:53;;;;;;;0.55;0.55;;;13.70;99.90;;;;;;5066695;28;20040;-64
2022/11/03 11:19:21;;;;;;;0.10;0.10;;;13.70;99.90;;;;;;5061100;28;20045;-65
2022/11/03 11:21:46;;;;;;;0.10;0.10;;;13.70;99.90;;;;;;5067552;28;20043;-64
2022/11/03 11:24:12;;;;;;;12.40;1.23;;;13.70;99.90;;;;;;5069769;28;20052;-64
2022/11/03 11:26:40;;;;;;;0.30;0.30;;;13.70;99.90;;;;;;5067784;28;20392;-64
2022/11/03 11:29:09;;;;;;;0.10;0.10;;;13.80;99.90;;;;;;5069994;28;20131;-64
2022/11/03 11:31:42;;;;;;;0.10;0.10;;;13.90;99.90;;;;;;5069978;28;20083;-64
2022/11/03 11:34:17;;;;;;;0.45;0.40;;;14.00;99.90;;;;;;5069171;28;20442;-64
2022/11/03 11:36:55;;;;;;;0.05;0.05;;;14.10;99.90;;;;;;5070410;28;20500;-64
2022/11/03 11:39:26;;;;;;;1.65;1.17;;;14.20;99.90;;;;;;5069407;28;20041;-64
2022/11/03 11:42:17;;;;;;;0.10;0.10;;;14.30;99.90;;;;;;5068219;28;20499;-64
2022/11/03 11:44:44;;;;;;;1.38;1.25;;;14.30;99.90;;;;;;5054832;28;20053;-64
2022/11/03 11:47:50;;;;;;;0.10;0.10;;;14.30;99.90;;;;;;5050695;28;20045;-64
2022/11/03 11:50:26;;;;;;;2.20;1.45;;;14.30;99.90;;;;;;5049787;28;20416;-64
2022/11/03 11:53:00;;;;;;;0.10;0.10;;;14.30;99.90;;;;;;5050161;28;20373;-64
2022/11/03 11:55:37;;;;;;;0.10;0.10;;;14.30;99.90;;;;;;5068534;28;20055;-64
2022/11/03 11:58:05;;;;;;;0.13;0.13;;;14.20;99.90;;;;;;5067137;28;20468;-64
2022/11/03 12:00:33;;;;;;;0.50;0.50;;;14.20;99.90;;;;;;5049887;28;20101;-64
2022/11/03 12:03:01;;;;;;;0.15;0.15;;;14.20;99.90;;;;;;5050205;28;20052;-64
2022/11/03 12:05:34;;;;;;;0.55;0.55;;;14.20;99.90;;;;;;5067007;28;20048;-65
2022/11/03 12:08:01;;;;;;;0.10;0.10;;;14.20;99.90;;;;;;5050527;28;20116;-64
2022/11/03 12:10:30;;;;;;;0.15;0.15;;;14.10;99.90;;;;;;5063761;28;20095;-64
2022/11/03 12:12:58;;;;;;;0.10;0.10;;;14.10;99.90;;;;;;5070768;28;20053;-64
2022/11/03 12:15:51;;;;;;;0.10;0.10;;;14.10;99.90;;;;;;5051117;28;20041;-64
2022/11/03 12:18:33;;;;;;;1.75;1.17;;;14.10;99.90;;;;;;5050191;28;20056;-64
2022/11/03 12:21:00;;;;;;;0.47;0.47;;;14.10;99.90;;;;;;5050360;28;20045;-64
2022/11/03 12:23:42;;;;;;;0.73;0.73;;;14.10;99.90;;;;;;5048382;28;20049;-64
2022/11/03 12:26:36;;;;;;;0.30;0.30;;;14.10;99.90;;;;;;5055309;28;20044;-64
2022/11/03 12:29:04;;;;;;;0.10;0.10;;;14.20;99.90;;;;;;5036397;28;20106;-63
2022/11/03 12:31:30;;;;;;;0.10;0.10;;;14.20;99.90;;;;;;5064360;28;20127;-64
2022/11/03 12:33:55;;;;;;;0.40;0.40;;;14.20;99.90;;;;;;5057972;28;20131;-64
2022/11/03 12:36:21;;;;;;;0.20;0.20;;;14.20;99.90;;;;;;5061163;28;20087;-64
2022/11/03 12:38:47;;;;;;;0.00;0.00;;;14.30;99.90;;;;;;5059733;28;20036;-63
2022/11/03 12:41:23;;;;;;;0.00;0.00;;;14.30;99.90;;;;;;5067356;28;20045;-63
2022/11/03 12:43:50;;;;;;;0.10;0.10;;;14.30;99.90;;;;;;5046608;28;20384;-64
2022/11/03 12:46:17;;;;;;;0.10;0.10;;;14.30;99.90;;;;;;5064774;28;20049;-64
2022/11/03 12:48:43;;;;;;;0.20;0.20;;;14.30;99.90;;;;;;5050016;28;20049;-64
2022/11/03 12:51:11;;;;;;;0.20;0.20;;;14.30;99.90;;;;;;5055125;28;20108;-64
2022/11/03 12:53:37;;;;;;;1.88;0.25;;;14.30;99.90;;;;;;5058764;28;20083;-64
2022/11/03 12:56:03;;;;;;;0.22;0.22;;;14.40;99.90;;;;;;5053783;28;20053;-64
2022/11/03 12:58:28;;;;;;;0.00;0.00;;;14.40;99.90;;;;;;5052045;28;20540;-64
2022/11/03 13:00:54;;;;;;;1.02;1.02;;;14.40;99.90;;;;;;5053770;28;20072;-64
2022/11/03 13:03:19;;;;;;;8.68;1.17;;;14.40;99.90;;;;;;5055199;28;20550;-64
2022/11/03 13:05:45;;;;;;;3.40;0.85;;;14.40;99.90;;;;;;5068769;28;20053;-64
2022/11/03 13:08:11;;;;;;;0.10;0.10;;;14.40;99.90;;;;;;5073581;28;20040;-64
2022/11/03 13:10:36;;;;;;;0.10;0.10;;;14.30;99.90;;;;;;5069675;28;20069;-64
2022/11/03 13:13:02;;;;;;;0.85;0.85;;;14.30;99.90;;;;;;5064731;28;20044;-64
2022/11/03 13:15:28;;;;;;;1.35;1.25;;;14.30;99.90;;;;;;5053062;28;20047;-64
2022/11/03 13:17:53;;;;;;;0.10;0.10;;;14.30;99.90;;;;;;5065209;28;20044;-64